createdAt,value
2018-02-13T00:00:04.468Z,44
2018-02-13T00:15:06.198Z,44
2018-02-13T00:30:04.605Z,43
2018-02-13T00:45:05.000Z,42
2018-02-13T01:00:04.613Z,42
2018-02-13T01:15:04.733Z,42
2018-02-13T01:30:05.415Z,43
2018-02-13T01:45:04.381Z,42
2018-02-13T02:00:05.300Z,46
2018-02-13T02:15:04.682Z,44
2018-02-13T02:30:04.945Z,44
2018-02-13T02:45:04.931Z,45
2018-02-13T03:00:05.084Z,43
2018-02-13T03:15:05.439Z,43
2018-02-13T03:30:04.695Z,43
2018-02-13T03:45:07.904Z,44
2018-02-13T04:00:04.858Z,42
2018-02-13T04:15:05.272Z,43
2018-02-13T04:30:04.449Z,43
2018-02-13T04:45:04.318Z,43
2018-02-13T05:00:05.596Z,44
2018-02-13T05:15:04.716Z,46
2018-02-13T05:30:05.049Z,48
2018-02-13T05:45:04.575Z,48
2018-02-13T06:00:05.290Z,50
2018-02-13T06:15:05.439Z,50
2018-02-13T06:30:04.837Z,50
2018-02-13T06:45:04.660Z,47
2018-02-13T07:00:05.054Z,49
2018-02-13T07:15:05.144Z,53
2018-02-13T07:30:05.546Z,49
2018-02-13T07:45:04.750Z,50
2018-02-13T08:00:04.862Z,49
2018-02-13T08:15:04.720Z,47
2018-02-13T08:30:04.983Z,46
2018-02-13T08:45:04.437Z,46
2018-02-13T09:00:06.095Z,46
2018-02-13T09:15:04.637Z,47
2018-02-13T09:30:05.392Z,46
2018-02-13T09:45:04.893Z,46
2018-02-13T10:00:04.389Z,46
2018-02-13T10:15:05.697Z,46
2018-02-13T10:30:06.391Z,44
2018-02-13T10:45:05.236Z,44
2018-02-13T11:00:08.104Z,44
2018-02-13T11:15:04.826Z,44
2018-02-13T11:30:04.606Z,43
2018-02-13T11:45:05.315Z,42
2018-02-13T12:00:04.797Z,44
2018-02-13T12:15:04.897Z,42
2018-02-13T12:30:05.046Z,43
2018-02-13T12:45:05.076Z,44
2018-02-13T13:00:05.341Z,45
2018-02-13T13:15:04.983Z,45
2018-02-13T13:30:04.747Z,43
2018-02-13T13:45:06.377Z,43
2018-02-13T14:00:05.240Z,46
2018-02-13T14:15:04.738Z,45
2018-02-13T14:30:04.543Z,44
2018-02-13T14:45:05.234Z,45
2018-02-13T15:00:05.318Z,45
2018-02-13T15:15:04.808Z,45
2018-02-13T15:30:04.645Z,47
2018-02-13T15:45:05.027Z,50
2018-02-13T16:00:05.117Z,51
2018-02-13T16:15:05.217Z,54
2018-02-13T16:30:04.408Z,52
2018-02-13T16:45:04.786Z,56
2018-02-13T17:00:05.295Z,57
2018-02-13T17:15:05.101Z,50
2018-02-13T17:30:04.839Z,53
2018-02-13T17:45:04.322Z,54
2018-02-13T18:00:05.223Z,51
2018-02-13T18:15:05.219Z,50
2018-02-13T18:30:04.914Z,53
2018-02-13T18:45:04.368Z,52
2018-02-13T19:00:08.183Z,50
2018-02-13T19:15:04.598Z,48
2018-02-13T19:30:05.226Z,50
2018-02-13T19:45:05.117Z,48
2018-02-13T20:00:05.295Z,48
2018-02-13T20:15:05.200Z,48
2018-02-13T20:30:04.392Z,48
2018-02-13T20:45:04.424Z,48
2018-02-13T21:00:04.892Z,48
2018-02-13T21:15:04.784Z,48
2018-02-13T21:30:04.353Z,46
2018-02-13T21:45:04.712Z,46
2018-02-13T22:00:05.357Z,47
2018-02-13T22:15:05.221Z,45
2018-02-13T22:30:04.863Z,45
2018-02-13T22:45:04.364Z,45
2018-02-13T23:00:04.579Z,45
2018-02-13T23:15:04.966Z,43
2018-02-13T23:30:12.101Z,43
2018-02-13T23:45:07.651Z,44
